sensor_id;sensor_type;location;lat;lon;timestamp;pressure;altitude;pressure_sealevel;temperature;humidity
10261;BME280;5175;42.606;23.388;2023-02-18T00:01:31;94460.88;;;2.83;76.43
10261;BME280;5175;42.606;23.388;2023-02-18T00:03:58;94490.19;;;2.93;77.67
10261;BME280;5175;42.606;23.388;2023-02-18T00:06:27;94490.97;;;3.00;77.04
10261;BME280;5175;42.606;23.388;2023-02-18T00:08:54;94493.00;;;2.67;79.73
10261;BME280;5175;42.606;23.388;2023-02-18T00:11:23;94485.72;;;2.31;83.10
10261;BME280;5175;42.606;23.388;2023-02-18T00:13:50;94474.84;;;2.21;84.76
10261;BME280;5175;42.606;23.388;2023-02-18T00:16:19;94448.63;;;2.02;84.06
10261;BME280;5175;42.606;23.388;2023-02-18T00:18:47;94451.59;;;2.18;84.30
10261;BME280;5175;42.606;23.388;2023-02-18T00:21:13;94461.06;;;2.19;84.55
10261;BME280;5175;42.606;23.388;2023-02-18T00:23:41;94467.91;;;2.27;83.28
10261;BME280;5175;42.606;23.388;2023-02-18T00:26:11;94458.56;;;2.37;81.72
10261;BME280;5175;42.606;23.388;2023-02-18T00:28:38;94446.72;;;2.53;81.35
10261;BME280;5175;42.606;23.388;2023-02-18T00:31:05;94439.72;;;2.65;80.72
10261;BME280;5175;42.606;23.388;2023-02-18T00:33:34;94437.41;;;2.50;81.22
10261;BME280;5175;42.606;23.388;2023-02-18T00:36:02;94429.59;;;2.69;80.55
10261;BME280;5175;42.606;23.388;2023-02-18T00:38:29;94426.38;;;2.60;80.47
10261;BME280;5175;42.606;23.388;2023-02-18T00:40:56;94420.03;;;2.43;81.40
10261;BME280;5175;42.606;23.388;2023-02-18T00:43:23;94407.84;;;2.17;83.14
10261;BME280;5175;42.606;23.388;2023-02-18T00:45:50;94412.56;;;2.40;82.60
10261;BME280;5175;42.606;23.388;2023-02-18T00:48:16;94418.88;;;2.32;83.86
10261;BME280;5175;42.606;23.388;2023-02-18T00:50:45;94423.06;;;2.09;86.65
10261;BME280;5175;42.606;23.388;2023-02-18T00:53:12;94426.03;;;1.81;89.03
10261;BME280;5175;42.606;23.388;2023-02-18T00:55:39;94423.22;;;1.76;88.89
10261;BME280;5175;42.606;23.388;2023-02-18T00:58:06;94430.38;;;1.56;91.30
10261;BME280;5175;42.606;23.388;2023-02-18T01:00:35;94407.59;;;1.87;87.67
10261;BME280;5175;42.606;23.388;2023-02-18T01:03:02;94426.75;;;2.01;86.98
10261;BME280;5175;42.606;23.388;2023-02-18T01:05:30;94429.72;;;2.18;86.26
10261;BME280;5175;42.606;23.388;2023-02-18T01:07:59;94431.47;;;2.30;84.65
10261;BME280;5175;42.606;23.388;2023-02-18T01:10:25;94437.19;;;2.52;82.60
10261;BME280;5175;42.606;23.388;2023-02-18T01:12:52;94431.72;;;2.53;82.46
10261;BME280;5175;42.606;23.388;2023-02-18T01:15:20;94437.75;;;2.61;81.29
10261;BME280;5175;42.606;23.388;2023-02-18T01:17:47;94434.34;;;2.53;81.46
10261;BME280;5175;42.606;23.388;2023-02-18T01:20:17;94426.81;;;2.57;81.33
10261;BME280;5175;42.606;23.388;2023-02-18T01:23:05;94427.34;;;2.72;80.54
10261;BME280;5175;42.606;23.388;2023-02-18T01:25:32;94437.38;;;2.82;78.86
10261;BME280;5175;42.606;23.388;2023-02-18T01:27:59;94427.34;;;2.72;80.12
10261;BME280;5175;42.606;23.388;2023-02-18T01:30:26;94420.22;;;2.73;78.53
10261;BME280;5175;42.606;23.388;2023-02-18T01:32:54;94394.84;;;2.53;77.92
10261;BME280;5175;42.606;23.388;2023-02-18T01:35:21;94427.00;;;2.87;78.24
10261;BME280;5175;42.606;23.388;2023-02-18T01:37:49;94350.53;;;2.44;77.24
10261;BME280;5175;42.606;23.388;2023-02-18T01:40:44;94429.31;;;2.77;77.78
10261;BME280;5175;42.606;23.388;2023-02-18T01:43:12;94425.22;;;2.56;78.92
10261;BME280;5175;42.606;23.388;2023-02-18T01:46:11;94427.22;;;2.61;79.23
10261;BME280;5175;42.606;23.388;2023-02-18T01:48:41;94425.00;;;2.58;79.54
10261;BME280;5175;42.606;23.388;2023-02-18T01:51:11;94434.47;;;2.34;80.15
10261;BME280;5175;42.606;23.388;2023-02-18T01:53:46;94439.53;;;2.35;80.21
10261;BME280;5175;42.606;23.388;2023-02-18T01:56:21;94358.53;;;1.62;81.98
10261;BME280;5175;42.606;23.388;2023-02-18T01:58:48;94439.44;;;2.11;83.00
10261;BME280;5175;42.606;23.388;2023-02-18T02:01:16;94438.84;;;2.09;82.72
10261;BME280;5175;42.606;23.388;2023-02-18T02:03:43;94458.16;;;2.34;81.64
10261;BME280;5175;42.606;23.388;2023-02-18T02:06:14;94454.13;;;2.31;81.14
10261;BME280;5175;42.606;23.388;2023-02-18T02:08:42;94466.56;;;2.18;81.21
10261;BME280;5175;42.606;23.388;2023-02-18T02:11:22;94452.94;;;1.83;83.18
10261;BME280;5175;42.606;23.388;2023-02-18T02:14:04;94446.94;;;2.14;81.88
10261;BME280;5175;42.606;23.388;2023-02-18T02:16:38;94414.16;;;1.72;83.70
10261;BME280;5175;42.606;23.388;2023-02-18T02:22:27;94423.25;;;2.14;82.06
10261;BME280;5175;42.606;23.388;2023-02-18T02:25:18;94420.06;;;2.36;80.50
10261;BME280;5175;42.606;23.388;2023-02-18T04:38:58;94424.16;;;2.64;78.88
10261;BME280;5175;42.606;23.388;2023-02-18T04:41:25;94421.75;;;2.87;77.00
10261;BME280;5175;42.606;23.388;2023-02-18T04:43:52;94425.88;;;3.01;77.09
10261;BME280;5175;42.606;23.388;2023-02-18T04:46:19;94434.09;;;3.11;75.84
10261;BME280;5175;42.606;23.388;2023-02-18T04:48:45;94427.56;;;3.13;76.32
10261;BME280;5175;42.606;23.388;2023-02-18T04:51:12;94435.16;;;3.28;74.88
10261;BME280;5175;42.606;23.388;2023-02-18T04:53:39;94437.25;;;3.20;75.17
10261;BME280;5175;42.606;23.388;2023-02-18T04:56:07;94439.53;;;2.91;77.39
10261;BME280;5175;42.606;23.388;2023-02-18T04:58:34;94440.91;;;3.00;77.29
10261;BME280;5175;42.606;23.388;2023-02-18T05:01:01;94430.44;;;2.63;79.80
10261;BME280;5175;42.606;23.388;2023-02-18T05:03:29;94436.56;;;2.57;80.21
10261;BME280;5175;42.606;23.388;2023-02-18T05:05:56;94438.91;;;1.96;84.18
10261;BME280;5175;42.606;23.388;2023-02-18T05:08:23;94451.13;;;2.21;83.19
10261;BME280;5175;42.606;23.388;2023-02-18T05:10:50;94450.06;;;2.35;82.07
10261;BME280;5175;42.606;23.388;2023-02-18T05:13:19;94458.09;;;2.09;84.47
10261;BME280;5175;42.606;23.388;2023-02-18T05:15:47;94476.03;;;2.25;83.17
10261;BME280;5175;42.606;23.388;2023-02-18T05:18:16;94462.25;;;2.30;82.92
10261;BME280;5175;42.606;23.388;2023-02-18T05:20:43;94461.25;;;2.31;82.97
10261;BME280;5175;42.606;23.388;2023-02-18T05:23:09;94454.03;;;2.44;81.54
10261;BME280;5175;42.606;23.388;2023-02-18T05:25:36;94454.47;;;2.41;81.50
10261;BME280;5175;42.606;23.388;2023-02-18T05:28:06;94449.31;;;2.28;82.92
10261;BME280;5175;42.606;23.388;2023-02-18T05:30:34;94456.75;;;2.31;83.49
10261;BME280;5175;42.606;23.388;2023-02-18T05:33:03;94451.38;;;2.51;82.57
10261;BME280;5175;42.606;23.388;2023-02-18T05:35:30;94415.50;;;2.25;83.16
10261;BME280;5175;42.606;23.388;2023-02-18T05:37:57;94427.34;;;2.41;82.13
10261;BME280;5175;42.606;23.388;2023-02-18T05:40:24;94415.25;;;2.33;82.53
10261;BME280;5175;42.606;23.388;2023-02-18T05:42:50;94416.91;;;2.21;84.00
10261;BME280;5175;42.606;23.388;2023-02-18T05:45:17;94430.41;;;2.38;82.59
10261;BME280;5175;42.606;23.388;2023-02-18T05:47:44;94438.13;;;2.64;81.36
10261;BME280;5175;42.606;23.388;2023-02-18T05:50:11;94443.75;;;2.68;80.92
10261;BME280;5175;42.606;23.388;2023-02-18T05:52:38;94442.03;;;2.55;82.23
10261;BME280;5175;42.606;23.388;2023-02-18T05:55:05;94446.47;;;2.54;83.00
10261;BME280;5175;42.606;23.388;2023-02-18T05:57:32;94442.16;;;2.67;82.32
10261;BME280;5175;42.606;23.388;2023-02-18T05:59:59;94444.75;;;2.73;82.33
10261;BME280;5175;42.606;23.388;2023-02-18T06:02:26;94448.94;;;2.81;82.23
10261;BME280;5175;42.606;23.388;2023-02-18T06:04:54;94449.16;;;3.04;81.08
10261;BME280;5175;42.606;23.388;2023-02-18T06:07:21;94464.06;;;3.16;79.62
10261;BME280;5175;42.606;23.388;2023-02-18T06:09:48;94466.00;;;3.03;81.03
10261;BME280;5175;42.606;23.388;2023-02-18T06:12:16;94473.38;;;2.94;82.71
10261;BME280;5175;42.606;23.388;2023-02-18T06:14:43;94477.63;;;3.20;80.58
10261;BME280;5175;42.606;23.388;2023-02-18T06:17:11;94430.72;;;3.04;78.50
10261;BME280;5175;42.606;23.388;2023-02-18T06:19:38;94458.47;;;3.06;80.88
10261;BME280;5175;42.606;23.388;2023-02-18T06:22:06;94468.84;;;3.26;78.73
10261;BME280;5175;42.606;23.388;2023-02-18T06:24:33;94445.97;;;2.95;79.91
10261;BME280;5175;42.606;23.388;2023-02-18T06:27:02;94467.88;;;3.21;80.11
10261;BME280;5175;42.606;23.388;2023-02-18T06:29:29;94464.25;;;3.40;79.46
10261;BME280;5175;42.606;23.388;2023-02-18T06:31:56;94459.72;;;3.65;77.21
10261;BME280;5175;42.606;23.388;2023-02-18T06:34:23;94454.69;;;3.63;77.10
10261;BME280;5175;42.606;23.388;2023-02-18T06:36:50;94456.88;;;3.48;77.71
10261;BME280;5175;42.606;23.388;2023-02-18T06:39:18;94458.50;;;3.86;76.13
10261;BME280;5175;42.606;23.388;2023-02-18T06:41:45;94457.91;;;4.02;75.88
10261;BME280;5175;42.606;23.388;2023-02-18T06:44:12;94446.66;;;4.24;75.59
10261;BME280;5175;42.606;23.388;2023-02-18T06:46:39;94443.41;;;4.52;73.28
10261;BME280;5175;42.606;23.388;2023-02-18T06:49:06;94441.41;;;4.66;72.43
10261;BME280;5175;42.606;23.388;2023-02-18T06:51:33;94435.09;;;4.78;70.91
10261;BME280;5175;42.606;23.388;2023-02-18T06:54:00;94436.88;;;4.96;70.70
10261;BME280;5175;42.606;23.388;2023-02-18T06:56:28;94447.03;;;5.11;70.04
10261;BME280;5175;42.606;23.388;2023-02-18T06:58:55;94429.28;;;5.11;68.57
10261;BME280;5175;42.606;23.388;2023-02-18T07:01:22;94430.34;;;5.45;67.62
10261;BME280;5175;42.606;23.388;2023-02-18T07:03:49;94426.56;;;5.41;69.24
10261;BME280;5175;42.606;23.388;2023-02-18T07:06:15;94439.00;;;5.52;68.02
10261;BME280;5175;42.606;23.388;2023-02-18T07:08:42;94440.44;;;5.71;67.86
10261;BME280;5175;42.606;23.388;2023-02-18T07:11:09;94439.88;;;5.69;67.15
10261;BME280;5175;42.606;23.388;2023-02-18T07:13:38;94453.59;;;5.78;67.48
10261;BME280;5175;42.606;23.388;2023-02-18T07:16:05;94450.59;;;5.97;67.11
10261;BME280;5175;42.606;23.388;2023-02-18T07:18:34;94438.22;;;6.14;67.15
10261;BME280;5175;42.606;23.388;2023-02-18T07:21:01;94416.09;;;6.20;66.67
10261;BME280;5175;42.606;23.388;2023-02-18T07:23:28;94445.00;;;6.50;65.88
10261;BME280;5175;42.606;23.388;2023-02-18T07:26:02;94423.06;;;5.98;64.18
10261;BME280;5175;42.606;23.388;2023-02-18T07:28:29;94435.28;;;6.27;62.17
10261;BME280;5175;42.606;23.388;2023-02-18T07:30:57;94439.97;;;6.37;61.34
10261;BME280;5175;42.606;23.388;2023-02-18T07:33:24;94448.94;;;6.48;59.86
10261;BME280;5175;42.606;23.388;2023-02-18T07:35:53;94444.69;;;6.47;59.71
10261;BME280;5175;42.606;23.388;2023-02-18T07:38:20;94432.25;;;6.64;58.61
10261;BME280;5175;42.606;23.388;2023-02-18T07:40:47;94440.31;;;6.69;59.15
10261;BME280;5175;42.606;23.388;2023-02-18T07:43:13;94451.72;;;6.69;59.17
10261;BME280;5175;42.606;23.388;2023-02-18T07:45:40;94460.34;;;6.76;59.32
10261;BME280;5175;42.606;23.388;2023-02-18T07:48:08;94464.53;;;6.61;60.59
10261;BME280;5175;42.606;23.388;2023-02-18T07:50:38;94450.06;;;6.52;59.87
10261;BME280;5175;42.606;23.388;2023-02-18T07:53:05;94478.13;;;6.92;60.45
10261;BME280;5175;42.606;23.388;2023-02-18T07:55:32;94481.84;;;7.08;59.54
10261;BME280;5175;42.606;23.388;2023-02-18T07:58:13;94478.00;;;7.16;58.55
10261;BME280;5175;42.606;23.388;2023-02-18T08:00:40;94474.44;;;7.27;58.25
10261;BME280;5175;42.606;23.388;2023-02-18T08:03:08;94473.34;;;7.39;56.13
10261;BME280;5175;42.606;23.388;2023-02-18T08:05:35;94488.00;;;7.42;56.83
10261;BME280;5175;42.606;23.388;2023-02-18T08:08:02;94471.91;;;7.48;57.14
10261;BME280;5175;42.606;23.388;2023-02-18T08:10:29;94470.34;;;7.52;57.33
10261;BME280;5175;42.606;23.388;2023-02-18T08:12:56;94469.50;;;7.47;57.09
10261;BME280;5175;42.606;23.388;2023-02-18T08:15:23;94468.50;;;7.70;55.40
10261;BME280;5175;42.606;23.388;2023-02-18T08:17:49;94472.41;;;8.00;55.01
10261;BME280;5175;42.606;23.388;2023-02-18T08:20:18;94478.13;;;8.31;54.34
10261;BME280;5175;42.606;23.388;2023-02-18T08:22:44;94479.78;;;8.58;52.18
10261;BME280;5175;42.606;23.388;2023-02-18T08:25:11;94476.56;;;8.35;52.34
10261;BME280;5175;42.606;23.388;2023-02-18T08:27:38;94470.72;;;8.54;51.06
10261;BME280;5175;42.606;23.388;2023-02-18T08:30:06;94464.91;;;8.84;51.70
10261;BME280;5175;42.606;23.388;2023-02-18T08:32:34;94460.56;;;9.31;48.52
10261;BME280;5175;42.606;23.388;2023-02-18T08:35:01;94461.50;;;9.47;47.65
10261;BME280;5175;42.606;23.388;2023-02-18T08:37:29;94454.88;;;9.50;47.45
10261;BME280;5175;42.606;23.388;2023-02-18T08:39:56;94454.41;;;9.58;48.34
10261;BME280;5175;42.606;23.388;2023-02-18T08:42:23;94433.09;;;9.58;48.63
10261;BME280;5175;42.606;23.388;2023-02-18T08:44:50;94439.16;;;9.95;48.46
10261;BME280;5175;42.606;23.388;2023-02-18T08:47:17;94441.34;;;10.03;47.93
10261;BME280;5175;42.606;23.388;2023-02-18T08:49:43;94432.72;;;9.81;47.65
10261;BME280;5175;42.606;23.388;2023-02-18T08:52:10;94424.75;;;9.86;48.58
10261;BME280;5175;42.606;23.388;2023-02-18T08:54:38;94410.94;;;9.52;50.93
10261;BME280;5175;42.606;23.388;2023-02-18T08:57:05;94415.28;;;9.68;50.33
10261;BME280;5175;42.606;23.388;2023-02-18T08:59:32;94432.53;;;9.61;50.26
10261;BME280;5175;42.606;23.388;2023-02-18T09:01:59;94431.78;;;9.60;51.57
10261;BME280;5175;42.606;23.388;2023-02-18T09:04:26;94448.84;;;9.64;50.27
10261;BME280;5175;42.606;23.388;2023-02-18T09:06:52;94448.84;;;9.64;50.99
10261;BME280;5175;42.606;23.388;2023-02-18T09:09:19;94458.03;;;9.83;49.93
10261;BME280;5175;42.606;23.388;2023-02-18T09:11:48;94447.34;;;9.78;49.42
10261;BME280;5175;42.606;23.388;2023-02-18T09:14:15;94460.75;;;9.93;49.43
10261;BME280;5175;42.606;23.388;2023-02-18T09:16:42;94468.81;;;10.03;48.38
10261;BME280;5175;42.606;23.388;2023-02-18T09:19:09;94462.50;;;10.15;48.26
10261;BME280;5175;42.606;23.388;2023-02-18T09:21:36;94468.66;;;10.20;48.25
10261;BME280;5175;42.606;23.388;2023-02-18T09:24:03;94468.16;;;10.23;47.68
10261;BME280;5175;42.606;23.388;2023-02-18T09:26:30;94456.72;;;10.33;47.33
10261;BME280;5175;42.606;23.388;2023-02-18T09:28:58;94460.66;;;10.20;47.11
10261;BME280;5175;42.606;23.388;2023-02-18T09:31:26;94401.88;;;10.00;47.03
10261;BME280;5175;42.606;23.388;2023-02-18T09:33:54;94461.34;;;10.47;46.24
10261;BME280;5175;42.606;23.388;2023-02-18T09:36:22;94451.56;;;10.78;45.29
10261;BME280;5175;42.606;23.388;2023-02-18T09:38:49;94451.59;;;10.83;44.66
10261;BME280;5175;42.606;23.388;2023-02-18T09:41:26;94443.09;;;11.11;44.87
10261;BME280;5175;42.606;23.388;2023-02-18T09:43:56;94431.84;;;10.94;45.35
10261;BME280;5175;42.606;23.388;2023-02-18T09:46:28;94435.88;;;11.12;43.09
10261;BME280;5175;42.606;23.388;2023-02-18T09:48:57;94435.91;;;11.52;43.39
10261;BME280;5175;42.606;23.388;2023-02-18T09:51:28;94424.94;;;11.74;42.59
10261;BME280;5175;42.606;23.388;2023-02-18T09:53:55;94433.19;;;12.03;42.62
10261;BME280;5175;42.606;23.388;2023-02-18T09:56:26;94430.28;;;11.84;40.85
10261;BME280;5175;42.606;23.388;2023-02-18T09:58:55;94431.84;;;12.05;39.80
10261;BME280;5175;42.606;23.388;2023-02-18T10:01:29;94416.84;;;12.14;41.01
10261;BME280;5175;42.606;23.388;2023-02-18T10:04:00;94439.31;;;12.18;40.94
10261;BME280;5175;42.606;23.388;2023-02-18T10:06:30;94436.16;;;11.96;40.45
10261;BME280;5175;42.606;23.388;2023-02-18T10:09:00;94438.28;;;12.09;40.48
10261;BME280;5175;42.606;23.388;2023-02-18T10:11:30;94430.53;;;11.87;40.95
10261;BME280;5175;42.606;23.388;2023-02-18T10:13:58;94428.34;;;12.10;40.18
10261;BME280;5175;42.606;23.388;2023-02-18T10:16:28;94419.66;;;12.43;39.04
10261;BME280;5175;42.606;23.388;2023-02-18T10:18:56;94421.50;;;12.57;39.05
10261;BME280;5175;42.606;23.388;2023-02-18T10:21:26;94418.59;;;12.98;38.74
10261;BME280;5175;42.606;23.388;2023-02-18T10:23:59;94425.03;;;13.07;38.94
10261;BME280;5175;42.606;23.388;2023-02-18T10:26:28;94430.28;;;13.22;39.00
10261;BME280;5175;42.606;23.388;2023-02-18T10:28:56;94425.31;;;13.39;38.81
10261;BME280;5175;42.606;23.388;2023-02-18T10:31:29;94421.97;;;13.57;39.21
10261;BME280;5175;42.606;23.388;2023-02-18T10:33:59;94421.72;;;13.82;39.45
10261;BME280;5175;42.606;23.388;2023-02-18T10:36:35;94414.59;;;14.02;37.79
10261;BME280;5175;42.606;23.388;2023-02-18T10:42:19;94401.78;;;13.94;37.56
10261;BME280;5175;42.606;23.388;2023-02-18T10:44:57;94411.56;;;14.08;37.40
10261;BME280;5175;42.606;23.388;2023-02-18T10:47:36;94409.50;;;14.00;38.64
10261;BME280;5175;42.606;23.388;2023-02-18T10:50:09;94390.72;;;14.24;43.84
10261;BME280;5175;42.606;23.388;2023-02-18T10:52:41;94382.28;;;14.35;36.87
10261;BME280;5175;42.606;23.388;2023-02-18T10:55:11;94394.72;;;14.74;35.92
10261;BME280;5175;42.606;23.388;2023-02-18T10:57:48;94380.63;;;14.63;36.46
10261;BME280;5175;42.606;23.388;2023-02-18T11:00:18;94382.44;;;14.86;36.20
10261;BME280;5175;42.606;23.388;2023-02-18T11:03:02;94372.94;;;14.94;36.25
10261;BME280;5175;42.606;23.388;2023-02-18T11:05:35;94371.53;;;15.15;36.14
10261;BME280;5175;42.606;23.388;2023-02-18T11:08:06;94374.69;;;15.36;35.76
10261;BME280;5175;42.606;23.388;2023-02-18T11:10:37;94361.38;;;14.93;35.88
10261;BME280;5175;42.606;23.388;2023-02-18T11:13:07;94370.81;;;14.91;35.24
10261;BME280;5175;42.606;23.388;2023-02-18T11:15:35;94354.91;;;14.57;35.89
10261;BME280;5175;42.606;23.388;2023-02-18T11:18:25;94380.34;;;14.83;35.45
10261;BME280;5175;42.606;23.388;2023-02-18T11:20:56;94359.63;;;14.65;36.64
10261;BME280;5175;42.606;23.388;2023-02-18T11:23:23;94354.41;;;15.11;35.57
10261;BME280;5175;42.606;23.388;2023-02-18T11:25:59;94355.47;;;15.29;35.84
10261;BME280;5175;42.606;23.388;2023-02-18T11:28:44;94355.47;;;15.29;34.46
10261;BME280;5175;42.606;23.388;2023-02-18T11:31:19;94337.78;;;15.09;35.13
10261;BME280;5175;42.606;23.388;2023-02-18T11:33:49;94332.66;;;15.07;34.81
10261;BME280;5175;42.606;23.388;2023-02-18T11:36:27;94325.13;;;15.10;34.94
10261;BME280;5175;42.606;23.388;2023-02-18T11:38:55;94319.47;;;14.92;35.71
10261;BME280;5175;42.606;23.388;2023-02-18T11:41:31;94310.84;;;14.95;35.34
10261;BME280;5175;42.606;23.388;2023-02-18T11:43:59;94256.53;;;14.80;35.87
10261;BME280;5175;42.606;23.388;2023-02-18T11:46:27;94278.84;;;15.13;36.47
10261;BME280;5175;42.606;23.388;2023-02-18T11:48:55;94291.25;;;15.41;36.19
10261;BME280;5175;42.606;23.388;2023-02-18T11:51:38;94291.53;;;15.58;35.07
10261;BME280;5175;42.606;23.388;2023-02-18T11:54:22;94282.78;;;15.80;33.52
10261;BME280;5175;42.606;23.388;2023-02-18T11:56:54;94283.19;;;16.00;33.55
10261;BME280;5175;42.606;23.388;2023-02-18T11:59:22;94283.28;;;16.22;34.33
10261;BME280;5175;42.606;23.388;2023-02-18T12:01:50;94280.38;;;16.33;33.45
10261;BME280;5175;42.606;23.388;2023-02-18T12:04:25;94274.97;;;16.60;33.88
10261;BME280;5175;42.606;23.388;2023-02-18T12:07:03;94279.41;;;16.78;32.94
10261;BME280;5175;42.606;23.388;2023-02-18T12:09:35;94279.78;;;16.85;32.44
10261;BME280;5175;42.606;23.388;2023-02-18T12:12:07;94267.41;;;16.84;31.81
10261;BME280;5175;42.606;23.388;2023-02-18T12:14:37;94260.78;;;16.90;32.21
10261;BME280;5175;42.606;23.388;2023-02-18T12:17:33;94263.06;;;17.19;31.17
10261;BME280;5175;42.606;23.388;2023-02-18T12:20:20;94261.59;;;17.35;34.43
10261;BME280;5175;42.606;23.388;2023-02-18T12:22:54;94267.69;;;17.49;32.05
10261;BME280;5175;42.606;23.388;2023-02-18T12:25:34;94265.41;;;17.65;31.74
10261;BME280;5175;42.606;23.388;2023-02-18T12:28:16;94256.38;;;17.61;31.49
10261;BME280;5175;42.606;23.388;2023-02-18T12:31:02;94261.13;;;17.41;31.58
10261;BME280;5175;42.606;23.388;2023-02-18T12:33:38;94255.31;;;17.26;31.20
10261;BME280;5175;42.606;23.388;2023-02-18T12:36:18;94249.16;;;17.25;31.73
10261;BME280;5175;42.606;23.388;2023-02-18T12:38:55;94241.50;;;17.19;31.34
10261;BME280;5175;42.606;23.388;2023-02-18T12:41:40;94238.31;;;17.17;32.48
10261;BME280;5175;42.606;23.388;2023-02-18T12:44:20;94240.44;;;17.28;30.79
10261;BME280;5175;42.606;23.388;2023-02-18T12:47:14;94218.03;;;17.19;31.70
10261;BME280;5175;42.606;23.388;2023-02-18T12:53:00;94220.53;;;17.69;31.41
10261;BME280;5175;42.606;23.388;2023-02-18T12:56:05;94221.66;;;17.45;32.07
10261;BME280;5175;42.606;23.388;2023-02-18T12:58:44;94212.63;;;17.19;31.82
10261;BME280;5175;42.606;23.388;2023-02-18T13:01:34;94209.59;;;17.12;33.20
10261;BME280;5175;42.606;23.388;2023-02-18T13:04:23;94212.16;;;17.17;32.20
10261;BME280;5175;42.606;23.388;2023-02-18T13:07:29;94217.44;;;17.31;32.36
10261;BME280;5175;42.606;23.388;2023-02-18T13:10:20;94210.53;;;17.78;32.24
10261;BME280;5175;42.606;23.388;2023-02-18T13:13:00;94209.38;;;18.18;31.34
10261;BME280;5175;42.606;23.388;2023-02-18T13:15:35;94219.13;;;18.28;30.84
10261;BME280;5175;42.606;23.388;2023-02-18T13:18:08;94212.09;;;18.09;31.22
10261;BME280;5175;42.606;23.388;2023-02-18T13:20:39;94220.44;;;17.91;31.28
10261;BME280;5175;42.606;23.388;2023-02-18T13:23:12;94217.06;;;17.77;31.52
10261;BME280;5175;42.606;23.388;2023-02-18T13:25:44;94215.84;;;17.91;31.42
10261;BME280;5175;42.606;23.388;2023-02-18T13:28:19;94219.31;;;17.83;31.28
10261;BME280;5175;42.606;23.388;2023-02-18T13:30:55;94205.28;;;17.73;33.06
10261;BME280;5175;42.606;23.388;2023-02-18T13:33:28;94205.59;;;17.40;33.83
10261;BME280;5175;42.606;23.388;2023-02-18T13:36:04;94200.47;;;17.00;34.54
10261;BME280;5175;42.606;23.388;2023-02-18T13:38:53;94208.28;;;16.87;34.90
10261;BME280;5175;42.606;23.388;2023-02-18T13:41:24;94198.31;;;16.88;35.53
10261;BME280;5175;42.606;23.388;2023-02-18T13:43:52;94201.50;;;17.12;34.78
10261;BME280;5175;42.606;23.388;2023-02-18T13:46:20;94201.22;;;17.22;33.31
10261;BME280;5175;42.606;23.388;2023-02-18T13:48:48;94197.13;;;17.03;33.88
10261;BME280;5175;42.606;23.388;2023-02-18T13:51:28;94175.28;;;16.60;34.64
10261;BME280;5175;42.606;23.388;2023-02-18T13:54:02;94194.28;;;16.41;35.46
10261;BME280;5175;42.606;23.388;2023-02-18T13:56:33;94194.94;;;16.47;36.34
10261;BME280;5175;42.606;23.388;2023-02-18T13:59:05;94178.69;;;16.52;35.79
10261;BME280;5175;42.606;23.388;2023-02-18T14:01:43;94178.47;;;16.26;36.01
10261;BME280;5175;42.606;23.388;2023-02-18T14:07:44;94171.38;;;16.30;35.39
10261;BME280;5175;42.606;23.388;2023-02-18T14:10:30;94192.25;;;16.47;34.39
10261;BME280;5175;42.606;23.388;2023-02-18T14:13:19;94193.28;;;16.37;33.95
10261;BME280;5175;42.606;23.388;2023-02-18T14:15:50;94194.22;;;16.33;34.22
10261;BME280;5175;42.606;23.388;2023-02-18T14:21:33;94178.19;;;16.27;35.62
10261;BME280;5175;42.606;23.388;2023-02-18T14:24:03;94210.03;;;16.48;34.50
10261;BME280;5175;42.606;23.388;2023-02-18T14:26:34;94210.66;;;16.31;34.57
10261;BME280;5175;42.606;23.388;2023-02-18T14:29:09;94206.22;;;16.13;35.04
10261;BME280;5175;42.606;23.388;2023-02-18T14:31:55;94205.13;;;16.00;35.48
10261;BME280;5175;42.606;23.388;2023-02-18T14:35:00;94199.53;;;16.10;35.50
10261;BME280;5175;42.606;23.388;2023-02-18T14:40:37;94211.25;;;15.79;35.67
10261;BME280;5175;42.606;23.388;2023-02-18T14:43:16;94217.13;;;15.53;35.96
10261;BME280;5175;42.606;23.388;2023-02-18T14:46:07;94222.34;;;15.31;36.37
10261;BME280;5175;42.606;23.388;2023-02-18T14:48:45;94217.09;;;15.40;36.55
10261;BME280;5175;42.606;23.388;2023-02-18T14:51:21;94215.03;;;15.50;36.75
10261;BME280;5175;42.606;23.388;2023-02-18T14:53:49;94208.44;;;15.70;36.29
10261;BME280;5175;42.606;23.388;2023-02-18T14:56:18;94196.19;;;15.78;35.82
10261;BME280;5175;42.606;23.388;2023-02-18T14:58:47;94199.97;;;16.04;35.19
10261;BME280;5175;42.606;23.388;2023-02-18T15:01:20;94191.47;;;16.10;34.96
10261;BME280;5175;42.606;23.388;2023-02-18T15:03:48;94148.56;;;15.78;35.65
10261;BME280;5175;42.606;23.388;2023-02-18T15:06:23;94198.28;;;15.94;36.61
10261;BME280;5175;42.606;23.388;2023-02-18T15:08:50;94191.19;;;15.98;36.42
10261;BME280;5175;42.606;23.388;2023-02-18T15:11:17;94200.56;;;15.87;36.40
10261;BME280;5175;42.606;23.388;2023-02-18T15:13:46;94200.88;;;15.86;36.26
10261;BME280;5175;42.606;23.388;2023-02-18T15:16:17;94196.50;;;15.76;35.75
10261;BME280;5175;42.606;23.388;2023-02-18T15:18:50;94205.56;;;15.66;36.75
10261;BME280;5175;42.606;23.388;2023-02-18T15:21:22;94197.50;;;15.53;36.06
10261;BME280;5175;42.606;23.388;2023-02-18T15:23:50;94199.50;;;15.61;36.38
10261;BME280;5175;42.606;23.388;2023-02-18T15:26:17;94206.13;;;15.36;37.00
10261;BME280;5175;42.606;23.388;2023-02-18T15:28:53;94200.97;;;15.07;37.45
10261;BME280;5175;42.606;23.388;2023-02-18T15:31:24;94205.00;;;14.78;37.95
10261;BME280;5175;42.606;23.388;2023-02-18T15:33:53;94196.06;;;14.31;39.04
10261;BME280;5175;42.606;23.388;2023-02-18T15:36:20;94197.69;;;14.09;39.24
10261;BME280;5175;42.606;23.388;2023-02-18T15:38:47;94173.53;;;14.09;39.52
10261;BME280;5175;42.606;23.388;2023-02-18T15:41:15;94177.75;;;13.96;39.80
10261;BME280;5175;42.606;23.388;2023-02-18T15:43:52;94164.88;;;13.74;40.10
10261;BME280;5175;42.606;23.388;2023-02-18T15:46:19;94178.88;;;13.71;40.25
10261;BME280;5175;42.606;23.388;2023-02-18T15:48:48;94171.75;;;13.62;40.72
10261;BME280;5175;42.606;23.388;2023-02-18T15:51:19;94179.41;;;13.26;42.55
10261;BME280;5175;42.606;23.388;2023-02-18T15:53:49;94165.63;;;13.14;43.77
10261;BME280;5175;42.606;23.388;2023-02-18T15:56:20;94167.75;;;13.17;43.61